Terminal Aerodrome Forecast
Issued by NWS Shreveport, LA

Home | Current Version | Previous Version | Text Only | Print | Product List | Glossary On
Versions: 1 2 3 4 5 6 7 8 9 10 11 12 13 14 15 16 17
621
FTUS44 KSHV 261137
TAFLFK
TAF
KLFK 261137Z 2612/2712 17010KT P6SM BKN025
      TEMPO 2612/2615 BKN007
     FM261500 20013G19KT P6SM OVC020
     FM261900 18015G22KT P6SM OVC035
     FM270100 17010KT P6SM OVC050
     FM270400 16010KT P6SM OVC015=

USA.gov is the U.S. government's official web portal to all federal, state and local government web resources and services.